Terminal Aerodrome Forecast
Issued by NWS

Current Version | Previous Version | Text Only | Print | Product List | Glossary On
Versions: 1 2 3 4 5 6 7 8 9 10 11 12 13 14 15 16 17 18
349
FTUS43 KIND 271720
TAFLAF
TAF
KLAF 271720Z 2718/2818 31004KT P6SM FEW050
     FM272300 VRB04KT P6SM FEW200
     FM281500 18012KT P6SM SCT250=

USA.gov is the U.S. government's official web portal to all federal, state and local government web resources and services.